Time;durP1;ratioP1;P1;durP2;ratioP2;P2;SDS_P1;SDS_P2;PMS_P1;PMS_P2;Temp;Humidity;BMP_temperature;BMP_pressure;BME280_temperature;BME280_humidity;BME280_pressure;Samples;Min_cycle;Max_cycle;Signal;HPM_P1;HPM_P2
2022/06/01 00:02:01;;;;;;;20.58;10.80;;;11.10;99.90;;;;;;5034237;28;20530;-73
2022/06/01 00:04:28;;;;;;;21.83;11.52;;;11.10;99.90;;;;;;5034310;28;20025;-73
2022/06/01 00:06:54;;;;;;;17.55;10.57;;;11.20;99.90;;;;;;5034530;28;20079;-73
2022/06/01 00:09:19;;;;;;;17.88;11.23;;;11.20;99.90;;;;;;5032759;28;20037;-73
2022/06/01 00:11:45;;;;;;;21.05;11.63;;;11.20;99.90;;;;;;5034046;28;20035;-73
2022/06/01 00:14:11;;;;;;;23.20;13.10;;;11.20;99.90;;;;;;5032694;28;20109;-73
2022/06/01 00:16:36;;;;;;;18.40;11.73;;;11.30;99.90;;;;;;5034314;28;20022;-74
2022/06/01 00:19:02;;;;;;;22.52;13.65;;;11.20;99.90;;;;;;5033704;28;20392;-72
2022/06/01 00:21:28;;;;;;;20.83;13.50;;;11.20;99.90;;;;;;5033856;28;20170;-74
2022/06/01 00:23:53;;;;;;;21.60;12.75;;;11.20;99.90;;;;;;5033669;28;20021;-74
2022/06/01 00:26:19;;;;;;;20.55;11.82;;;11.20;99.90;;;;;;5034013;28;20029;-74
2022/06/01 00:28:44;;;;;;;21.40;12.38;;;11.20;99.90;;;;;;5033550;28;20511;-74
2022/06/01 00:31:13;;;;;;;20.88;12.20;;;11.20;99.90;;;;;;5034138;28;20030;-74
2022/06/01 00:33:39;;;;;;;20.33;11.85;;;11.20;99.90;;;;;;5032690;28;20026;-74
2022/06/01 00:36:07;;;;;;;19.83;12.35;;;11.20;99.90;;;;;;5032222;28;20030;-74
2022/06/01 00:38:33;;;;;;;18.85;11.95;;;11.10;99.90;;;;;;5032206;28;20026;-75
2022/06/01 00:40:59;;;;;;;18.55;11.38;;;11.10;99.90;;;;;;5032155;28;20439;-74
2022/06/01 00:43:45;;;;;;;20.10;12.27;;;11.00;99.90;;;;;;5033402;28;20037;-74
2022/06/01 00:46:11;;;;;;;19.80;11.45;;;11.00;99.90;;;;;;5032062;28;20021;-74
2022/06/01 00:48:40;;;;;;;19.02;11.65;;;11.10;99.90;;;;;;5033329;28;20109;-74
2022/06/01 00:51:07;;;;;;;;;;;11.00;99.90;;;;;;5033804;28;20476;-72
2022/06/01 00:53:36;;;;;;;20.38;11.85;;;11.00;99.90;;;;;;5033372;28;19905;-72
2022/06/01 00:56:09;;;;;;;19.48;12.27;;;11.00;99.90;;;;;;5033341;28;20018;-74
2022/06/01 00:58:40;;;;;;;18.27;10.27;;;11.00;99.90;;;;;;5032660;28;20408;-74
2022/06/01 01:01:10;;;;;;;18.38;10.20;;;10.90;99.90;;;;;;5033271;28;20061;-74
2022/06/01 01:03:39;;;;;;;17.27;9.45;;;11.00;99.90;;;;;;5032645;28;20069;-74
2022/06/01 01:06:13;;;;;;;15.23;9.45;;;10.90;99.90;;;;;;5033506;28;20091;-74
2022/06/01 01:08:41;;;;;;;17.48;9.32;;;10.90;99.90;;;;;;5033474;28;20022;-74
2022/06/01 01:11:08;;;;;;;13.80;8.70;;;10.90;99.90;;;;;;5031906;28;20515;-74
2022/06/01 01:13:34;;;;;;;16.48;9.02;;;10.90;99.90;;;;;;5033610;28;20109;-74
2022/06/01 01:16:01;;;;;;;14.27;9.38;;;10.90;99.90;;;;;;5033361;28;20428;-74
2022/06/01 01:18:29;;;;;;;14.60;8.13;;;10.90;99.90;;;;;;5031860;28;20108;-74
2022/06/01 01:21:09;;;;;;;17.10;7.68;;;10.90;99.90;;;;;;5033075;28;20063;-74
2022/06/01 01:23:53;;;;;;;12.93;6.82;;;10.90;99.90;;;;;;5031851;28;20106;-74
2022/06/01 01:26:20;;;;;;;9.88;6.95;;;10.90;99.90;;;;;;5031978;28;20018;-74
2022/06/01 01:28:46;;;;;;;11.63;6.70;;;10.90;99.90;;;;;;5031849;28;20052;-74
2022/06/01 01:31:20;;;;;;;10.02;5.65;;;10.90;99.90;;;;;;5033234;28;20481;-74
2022/06/01 01:33:48;;;;;;;9.82;6.13;;;10.80;99.90;;;;;;5033054;28;20017;-74
2022/06/01 01:36:15;;;;;;;9.95;6.38;;;10.80;99.90;;;;;;5031720;28;20021;-74
2022/06/01 01:38:50;;;;;;;17.45;6.72;;;10.80;99.90;;;;;;5032886;28;20061;-74
2022/06/01 01:41:31;;;;;;;11.05;6.40;;;10.70;99.90;;;;;;5032900;28;20021;-74
2022/06/01 01:44:05;;;;;;;11.88;7.18;;;10.70;99.90;;;;;;5031603;28;20060;-74
2022/06/01 01:46:31;;;;;;;17.73;8.52;;;10.60;99.90;;;;;;5037450;28;20017;-74
2022/06/01 01:48:58;;;;;;;14.32;7.78;;;10.60;99.90;;;;;;5036910;28;20115;-74
2022/06/01 01:51:26;;;;;;;14.02;7.80;;;10.60;99.90;;;;;;5036683;28;20026;-74
2022/06/01 01:53:54;;;;;;;10.90;7.20;;;10.60;99.90;;;;;;5035386;28;20025;-74
2022/06/01 01:57:01;;;;;;;14.18;8.23;;;10.60;99.90;;;;;;5036637;28;20017;-74
2022/06/01 01:59:53;;;;;;;12.27;7.03;;;10.50;99.90;;;;;;4995190;28;20026;-74
2022/06/01 02:02:30;;;;;;;11.07;6.95;;;10.60;99.90;;;;;;5035270;28;20049;-74
2022/06/01 02:08:37;;;;;;;9.90;5.95;;;10.50;99.90;;;;;;5037235;28;20515;-74
2022/06/01 02:14:00;;;;;;;7.97;4.75;;;10.60;99.90;;;;;;5036671;28;20416;-74
2022/06/01 02:16:30;;;;;;;10.38;5.13;;;10.50;99.90;;;;;;5036384;28;20503;-74
2022/06/01 02:19:00;;;;;;;6.85;4.10;;;10.50;99.90;;;;;;5036558;28;20435;-74
2022/06/01 02:21:28;;;;;;;6.70;4.05;;;10.50;99.90;;;;;;5034928;28;20037;-74
2022/06/01 02:23:57;;;;;;;7.07;4.55;;;10.50;99.90;;;;;;5036156;28;20017;-74
2022/06/01 02:26:24;;;;;;;9.07;4.50;;;10.50;99.90;;;;;;5036461;28;20041;-74
2022/06/01 02:28:54;;;;;;;6.90;3.72;;;10.50;99.90;;;;;;5034729;28;20377;-74
2022/06/01 02:31:21;;;;;;;8.27;3.53;;;10.50;99.90;;;;;;5034764;28;20068;-74
2022/06/01 02:33:48;;;;;;;7.60;3.75;;;10.50;99.90;;;;;;5034761;28;20025;-74
2022/06/01 02:36:15;;;;;;;6.32;4.22;;;10.50;99.90;;;;;;5036091;28;20400;-74
2022/06/01 02:38:47;;;;;;;8.23;4.20;;;10.50;99.90;;;;;;5034969;28;20469;-74
2022/06/01 02:43:58;;;;;;;5.97;3.63;;;10.50;99.90;;;;;;5036490;28;20040;-74
2022/06/01 02:46:25;;;;;;;7.18;3.50;;;10.50;99.90;;;;;;5035612;28;20489;-74
2022/06/01 02:48:51;;;;;;;6.38;3.42;;;10.50;99.90;;;;;;5035628;28;20451;-74
2022/06/01 02:51:20;;;;;;;7.63;4.25;;;10.50;99.90;;;;;;5035466;28;20101;-74
2022/06/01 02:53:46;;;;;;;7.65;4.38;;;10.40;99.90;;;;;;5034161;28;20026;-74
2022/06/01 02:56:13;;;;;;;6.65;4.78;;;10.50;99.90;;;;;;5034407;28;20055;-74
2022/06/01 02:58:39;;;;;;;9.10;4.95;;;10.50;99.90;;;;;;5034275;28;20018;-74
2022/06/01 03:01:06;;;;;;;7.93;4.35;;;10.50;99.90;;;;;;5033828;28;20520;-73
2022/06/01 03:03:32;;;;;;;8.48;4.82;;;10.50;99.90;;;;;;5034192;28;20028;-74
2022/06/01 03:05:58;;;;;;;9.60;4.97;;;10.50;99.90;;;;;;5035229;28;20060;-74
2022/06/01 03:08:25;;;;;;;8.05;4.68;;;10.50;99.90;;;;;;5033940;28;20021;-73
2022/06/01 03:10:51;;;;;;;9.02;5.10;;;10.50;99.90;;;;;;5033820;28;20567;-74
2022/06/01 03:13:17;;;;;;;8.98;4.85;;;10.50;99.90;;;;;;5034487;28;20013;-73
2022/06/01 03:15:43;;;;;;;7.13;4.60;;;10.80;99.90;;;;;;5035284;28;20033;-73
2022/06/01 03:18:08;;;;;;;12.93;5.05;;;10.60;99.90;;;;;;5035182;28;20022;-73
2022/06/01 03:20:34;;;;;;;6.68;4.13;;;10.60;99.90;;;;;;5035543;28;20380;-73
2022/06/01 03:23:00;;;;;;;7.97;4.53;;;10.60;99.90;;;;;;5035294;28;20017;-75
2022/06/01 03:25:28;;;;;;;9.35;4.60;;;10.60;99.90;;;;;;5035277;28;20451;-74
2022/06/01 03:27:57;;;;;;;10.25;4.93;;;10.60;99.90;;;;;;5034986;28;20021;-74
2022/06/01 03:30:23;;;;;;;8.10;4.25;;;10.60;99.90;;;;;;5034806;28;20048;-74
2022/06/01 03:32:51;;;;;;;6.95;3.83;;;10.60;99.90;;;;;;5034831;28;20535;-74
2022/06/01 03:35:20;;;;;;;6.88;4.45;;;10.60;99.90;;;;;;5034971;28;20072;-74
2022/06/01 03:37:46;;;;;;;;;;;10.60;99.90;;;;;;5035530;28;20396;-73
2022/06/01 03:40:17;;;;;;;9.25;3.75;;;10.70;99.90;;;;;;5034838;28;19912;-73
2022/06/01 03:42:43;;;;;;;7.53;4.57;;;10.60;99.90;;;;;;5034936;28;20035;-73
2022/06/01 03:47:55;;;;;;;9.20;5.00;;;10.60;99.90;;;;;;5035546;28;20103;-73
2022/06/01 03:50:23;;;;;;;10.77;4.82;;;10.50;99.90;;;;;;5034576;28;20017;-74
2022/06/01 03:52:49;;;;;;;9.30;4.47;;;10.50;99.90;;;;;;5034792;28;20025;-74
2022/06/01 03:55:15;;;;;;;9.88;5.20;;;10.40;99.90;;;;;;5033336;28;20022;-74
2022/06/01 03:57:42;;;;;;;10.35;5.38;;;10.30;99.90;;;;;;5034635;28;20078;-74
2022/06/01 04:00:11;;;;;;;13.57;5.30;;;10.30;99.90;;;;;;5034435;28;20108;-74
2022/06/01 04:02:37;;;;;;;9.35;5.38;;;10.20;99.90;;;;;;5034359;28;20424;-74
2022/06/01 04:05:04;;;;;;;10.60;5.93;;;10.20;99.90;;;;;;5034422;28;20055;-74
2022/06/01 04:07:30;;;;;;;8.23;4.80;;;10.20;99.90;;;;;;5034166;28;20026;-74
2022/06/01 04:09:55;;;;;;;12.05;6.57;;;10.20;99.90;;;;;;5032936;28;20083;-74
2022/06/01 04:12:21;;;;;;;10.05;5.53;;;10.20;99.90;;;;;;5034072;28;20026;-74
2022/06/01 04:14:47;;;;;;;9.63;5.97;;;10.20;99.90;;;;;;5033647;28;20022;-74
2022/06/01 04:17:12;;;;;;;10.80;5.07;;;10.20;99.90;;;;;;5034096;28;20048;-74
2022/06/01 04:19:38;;;;;;;15.10;6.63;;;10.20;99.90;;;;;;5032728;28;20100;-74
2022/06/01 04:22:03;;;;;;;9.93;5.75;;;10.10;99.90;;;;;;5032889;28;20029;-73
2022/06/01 04:24:32;;;;;;;12.73;6.15;;;10.10;99.90;;;;;;5034048;28;20096;-73
2022/06/01 04:26:58;;;;;;;10.35;5.43;;;10.10;99.90;;;;;;5032931;28;20075;-74
2022/06/01 04:29:24;;;;;;;11.38;5.55;;;10.10;99.90;;;;;;5032715;28;20026;-74
2022/06/01 04:31:55;;;;;;;11.77;5.40;;;10.10;99.90;;;;;;5033806;28;20061;-74
2022/06/01 04:34:21;;;;;;;7.85;4.65;;;10.00;99.90;;;;;;5033924;28;20064;-74
2022/06/01 04:36:46;;;;;;;8.50;5.13;;;10.00;99.90;;;;;;5033820;28;20526;-74
2022/06/01 04:39:12;;;;;;;7.47;4.82;;;10.10;99.90;;;;;;5034259;28;20014;-74
2022/06/01 04:41:37;;;;;;;8.65;4.57;;;10.20;99.90;;;;;;5033909;28;20096;-74
2022/06/01 04:44:03;;;;;;;8.02;4.00;;;10.20;99.90;;;;;;5033532;28;20107;-74
2022/06/01 04:46:28;;;;;;;6.60;3.72;;;10.30;99.90;;;;;;5033178;28;20025;-74
2022/06/01 04:48:54;;;;;;;7.75;3.33;;;10.50;99.90;;;;;;5033960;28;20049;-73
2022/06/01 04:51:20;;;;;;;6.35;3.20;;;10.60;99.90;;;;;;5033743;28;20571;-73
2022/06/01 04:53:45;;;;;;;5.28;3.50;;;10.70;99.90;;;;;;5033683;28;20025;-73
2022/06/01 04:56:11;;;;;;;4.38;2.33;;;10.80;99.90;;;;;;5033239;28;20036;-73
2022/06/01 04:58:38;;;;;;;5.45;2.60;;;10.80;99.90;;;;;;5032148;28;20044;-73
2022/06/01 05:01:04;;;;;;;3.97;1.80;;;10.90;99.90;;;;;;5033202;28;20104;-73
2022/06/01 05:03:30;;;;;;;6.85;1.67;;;10.90;99.90;;;;;;5033455;28;20088;-73
2022/06/01 05:05:55;;;;;;;6.75;1.75;;;11.00;99.90;;;;;;5033506;28;20017;-76
2022/06/01 05:08:21;;;;;;;1.40;0.82;;;11.00;99.90;;;;;;5033198;28;20036;-74
2022/06/01 05:10:47;;;;;;;2.47;0.88;;;11.10;99.90;;;;;;5031890;28;20036;-74
2022/06/01 05:13:16;;;;;;;1.67;0.63;;;11.10;99.90;;;;;;5033567;28;20026;-73
2022/06/01 05:15:47;;;;;;;1.27;0.88;;;11.00;99.90;;;;;;5033277;28;20025;-73
2022/06/01 05:18:13;;;;;;;2.22;0.80;;;11.10;99.90;;;;;;5033117;28;20022;-73
2022/06/01 05:20:41;;;;;;;1.27;0.43;;;11.10;99.90;;;;;;5038819;28;20109;-75
2022/06/01 05:23:08;;;;;;;1.27;0.47;;;11.10;99.90;;;;;;5040798;28;20047;-75
2022/06/01 05:25:34;;;;;;;1.67;0.52;;;11.20;99.90;;;;;;5039712;28;20063;-75
2022/06/01 05:27:59;;;;;;;1.38;0.10;;;11.30;99.90;;;;;;5039742;28;20112;-75
2022/06/01 05:30:25;;;;;;;0.60;0.22;;;11.30;99.90;;;;;;5038399;28;20029;-74
2022/06/01 05:32:51;;;;;;;0.50;0.10;;;11.40;99.90;;;;;;5039961;28;20024;-74
2022/06/01 05:35:17;;;;;;;1.00;0.10;;;11.50;99.90;;;;;;5039591;28;20040;-74
2022/06/01 05:37:42;;;;;;;1.40;0.17;;;11.40;99.90;;;;;;5039642;28;20481;-76
2022/06/01 05:40:08;;;;;;;2.47;0.30;;;11.50;99.90;;;;;;5038312;28;20064;-74
2022/06/01 05:42:34;;;;;;;1.48;0.00;;;11.60;99.90;;;;;;5039782;28;20044;-73
2022/06/01 05:44:59;;;;;;;1.00;0.10;;;11.70;99.90;;;;;;5039669;28;20037;-73
2022/06/01 05:47:25;;;;;;;0.10;0.00;;;11.70;99.90;;;;;;5038260;28;20499;-73
2022/06/01 05:49:51;;;;;;;1.55;0.22;;;11.80;99.90;;;;;;5039551;28;20017;-73
2022/06/01 05:52:19;;;;;;;0.52;0.00;;;11.80;99.90;;;;;;5039369;28;20072;-73
2022/06/01 05:54:50;;;;;;;0.20;0.10;;;11.90;99.90;;;;;;5038081;28;20025;-76
2022/06/01 05:57:16;;;;;;;5.63;0.10;;;12.00;99.90;;;;;;5039504;28;20024;-76
2022/06/01 05:59:41;;;;;;;1.55;0.10;;;12.10;99.90;;;;;;5038378;28;20033;-75
2022/06/01 06:02:08;;;;;;;1.33;0.00;;;12.20;99.90;;;;;;5074870;23;20052;-72
2022/06/01 06:04:35;;;;;;;0.60;0.20;;;12.20;99.90;;;;;;5059323;28;20069;-73
2022/06/01 06:07:01;;;;;;;1.88;0.15;;;12.30;99.90;;;;;;5059502;28;20048;-74
2022/06/01 06:09:27;;;;;;;0.15;0.03;;;12.40;99.90;;;;;;5059604;28;20471;-74
2022/06/01 06:11:53;;;;;;;0.20;0.03;;;12.40;99.90;;;;;;5059167;28;20109;-74
2022/06/01 06:14:20;;;;;;;1.98;0.00;;;12.50;99.90;;;;;;5057880;28;20040;-74
2022/06/01 06:16:46;;;;;;;0.73;0.13;;;12.70;99.90;;;;;;5057984;28;20090;-74
2022/06/01 06:19:14;;;;;;;1.25;0.00;;;12.80;99.90;;;;;;5059172;28;20013;-74
2022/06/01 06:21:41;;;;;;;1.40;0.00;;;12.90;99.90;;;;;;5059211;28;20472;-74
2022/06/01 06:24:16;;;;;;;0.52;0.10;;;12.90;99.90;;;;;;5059368;28;20028;-74
2022/06/01 06:26:42;;;;;;;1.35;0.50;;;13.00;99.90;;;;;;5059232;28;20468;-74
2022/06/01 06:29:10;;;;;;;1.25;0.57;;;13.10;99.90;;;;;;5059111;28;20025;-74
2022/06/01 06:31:36;;;;;;;2.25;0.20;;;13.00;99.90;;;;;;5056907;28;20032;-74
2022/06/01 06:34:02;;;;;;;3.45;0.63;;;13.10;99.90;;;;;;5055802;28;20028;-74
2022/06/01 06:36:28;;;;;;;1.58;0.70;;;13.10;99.90;;;;;;5055874;28;20029;-74
2022/06/01 06:38:54;;;;;;;0.35;0.25;;;13.20;99.90;;;;;;5054809;28;20479;-74
2022/06/01 06:41:21;;;;;;;0.68;0.30;;;13.30;99.90;;;;;;5055755;28;20487;-74
2022/06/01 06:43:47;;;;;;;1.10;0.68;;;13.40;99.90;;;;;;5054483;28;20090;-74
2022/06/01 06:46:16;;;;;;;1.67;0.80;;;13.40;99.90;;;;;;5055608;28;20498;-74
2022/06/01 06:48:43;;;;;;;2.67;0.65;;;13.60;99.90;;;;;;5055827;28;20470;-74
2022/06/01 06:51:10;;;;;;;1.85;0.70;;;13.60;99.90;;;;;;5055537;28;20035;-74
2022/06/01 06:53:35;;;;;;;1.50;0.90;;;13.80;99.90;;;;;;5056010;28;20428;-73
2022/06/01 06:56:02;;;;;;;2.67;1.17;;;13.90;99.90;;;;;;5054142;28;20017;-73
2022/06/01 06:58:27;;;;;;;1.95;0.77;;;13.90;99.90;;;;;;5055733;28;20113;-73
2022/06/01 07:00:53;;;;;;;2.90;0.90;;;14.10;99.90;;;;;;5055356;28;20503;-73
2022/06/01 07:03:19;;;;;;;2.58;0.50;;;14.10;99.90;;;;;;5055358;28;20479;-73
2022/06/01 07:08:32;;;;;;;2.17;0.80;;;14.10;99.90;;;;;;5056206;28;20056;-72
2022/06/01 07:10:59;;;;;;;3.42;1.40;;;13.90;99.90;;;;;;5053878;28;20025;-72
2022/06/01 07:13:27;;;;;;;1.27;0.80;;;14.00;99.90;;;;;;5053875;28;20029;-73
2022/06/01 07:16:09;;;;;;;4.90;0.90;;;14.30;99.90;;;;;;5055153;28;20024;-73
2022/06/01 07:18:39;;;;;;;3.28;0.93;;;14.60;99.90;;;;;;5055651;28;20045;-73
2022/06/01 07:21:05;;;;;;;1.45;0.82;;;14.70;99.90;;;;;;5053761;28;20079;-73
2022/06/01 07:23:30;;;;;;;4.05;0.90;;;14.70;99.90;;;;;;5054896;28;20476;-73
2022/06/01 07:25:57;;;;;;;2.08;0.77;;;14.90;99.90;;;;;;5054885;28;20040;-73
2022/06/01 07:28:23;;;;;;;1.38;0.50;;;15.10;99.90;;;;;;5054830;28;20025;-72
2022/06/01 07:30:50;;;;;;;1.30;0.82;;;15.50;99.90;;;;;;5053494;28;20035;-72
2022/06/01 07:33:17;;;;;;;0.88;0.50;;;15.80;99.90;;;;;;5054783;28;20025;-72
2022/06/01 07:35:43;;;;;;;1.05;0.38;;;15.80;99.90;;;;;;5054625;28;20027;-72
2022/06/01 07:43:39;;;;;;;1.52;0.50;;;15.50;99.90;;;;;;5054613;28;20438;-72
2022/06/01 07:46:05;;;;;;;3.17;0.65;;;15.40;99.90;;;;;;5054752;28;20032;-73
2022/06/01 07:48:32;;;;;;;1.40;0.25;;;15.30;99.90;;;;;;5054458;28;20422;-73
2022/06/01 07:50:58;;;;;;;1.23;0.20;;;15.00;99.90;;;;;;5054376;28;20071;-72
2022/06/01 07:53:24;;;;;;;0.22;0.10;;;14.90;99.90;;;;;;5053181;28;20437;-72
2022/06/01 07:55:49;;;;;;;0.95;0.20;;;14.90;99.90;;;;;;5054288;28;20460;-73
2022/06/01 07:58:15;;;;;;;1.05;0.25;;;14.90;99.90;;;;;;5053330;28;20025;-72
2022/06/01 08:00:40;;;;;;;1.40;0.15;;;15.10;99.90;;;;;;5054342;28;20025;-73
2022/06/01 08:03:15;;;;;;;0.75;0.35;;;15.30;99.90;;;;;;5052924;28;20087;-72
2022/06/01 08:05:42;;;;;;;0.10;0.00;;;15.50;99.90;;;;;;5054219;28;20032;-72
2022/06/01 08:08:08;;;;;;;2.92;0.10;;;15.60;99.90;;;;;;5054252;28;20448;-72
2022/06/01 08:10:36;;;;;;;1.27;0.35;;;15.80;99.90;;;;;;5054087;28;20064;-72
2022/06/01 08:13:07;;;;;;;1.00;0.13;;;16.10;99.90;;;;;;5052780;28;20440;-72
2022/06/01 08:15:36;;;;;;;1.33;0.00;;;16.20;99.90;;;;;;5052766;28;20108;-73
2022/06/01 08:18:02;;;;;;;;;;;16.10;99.90;;;;;;5054959;28;20025;-73
2022/06/01 08:20:29;;;;;;;0.63;0.00;;;16.00;99.90;;;;;;5052642;28;19905;-72
2022/06/01 08:22:55;;;;;;;1.42;0.10;;;15.90;99.90;;;;;;5054224;28;20032;-73
2022/06/01 08:25:22;;;;;;;0.50;0.00;;;15.70;99.90;;;;;;5053785;28;20369;-72
2022/06/01 08:27:48;;;;;;;1.30;0.00;;;15.50;99.90;;;;;;5053774;28;20025;-72
2022/06/01 08:30:15;;;;;;;1.27;0.30;;;15.20;99.90;;;;;;5052475;28;20148;-73
2022/06/01 08:32:42;;;;;;;1.02;0.00;;;15.00;99.90;;;;;;5053546;28;20399;-73
2022/06/01 08:35:10;;;;;;;0.03;0.00;;;14.80;99.90;;;;;;5053635;28;20044;-73
2022/06/01 08:37:36;;;;;;;0.30;0.00;;;14.70;99.90;;;;;;5052414;28;20017;-73
2022/06/01 08:40:02;;;;;;;1.58;0.00;;;15.00;99.90;;;;;;5052623;28;20021;-72
2022/06/01 08:42:28;;;;;;;0.47;0.00;;;15.30;99.90;;;;;;5053540;28;20060;-72
2022/06/01 08:45:00;;;;;;;1.55;0.20;;;15.70;99.90;;;;;;5053700;28;20041;-73
2022/06/01 08:47:31;;;;;;;0.80;0.10;;;15.80;99.90;;;;;;5054070;28;20021;-72
2022/06/01 08:50:00;;;;;;;9.00;0.43;;;16.10;99.90;;;;;;5053443;28;20036;-73
2022/06/01 08:52:30;;;;;;;0.77;0.20;;;16.40;99.90;;;;;;5053393;28;20056;-73
2022/06/01 08:54:56;;;;;;;0.20;0.00;;;16.40;99.90;;;;;;5051100;28;20104;-72
2022/06/01 08:57:36;;;;;;;0.45;0.00;;;16.40;99.90;;;;;;5053314;28;20059;-72
2022/06/01 09:00:11;;;;;;;0.25;0.00;;;16.40;99.90;;;;;;5053249;28;20028;-72
2022/06/01 09:03:05;;;;;;;0.47;0.05;;;16.60;99.90;;;;;;5051885;28;20510;-72
2022/06/01 09:05:44;;;;;;;0.20;0.00;;;16.70;99.90;;;;;;5053257;28;20048;-72
2022/06/01 09:08:13;;;;;;;;;;;16.80;99.90;;;;;;5053584;28;20035;-72
2022/06/01 09:10:44;;;;;;;0.20;0.10;;;17.10;99.90;;;;;;5051871;28;20003;-72
2022/06/01 09:13:23;;;;;;;3.03;0.00;;;17.30;99.90;;;;;;5053077;28;20108;-72
2022/06/01 09:15:57;;;;;;;;;;;17.30;99.90;;;;;;5053358;28;20017;-72
2022/06/01 09:18:27;;;;;;;2.97;0.00;;;17.20;99.90;;;;;;5053339;28;19909;-72
2022/06/01 09:23:42;;;;;;;1.45;0.03;;;16.80;99.90;;;;;;5053882;28;20036;-72
2022/06/01 09:26:07;;;;;;;0.10;0.00;;;16.80;99.90;;;;;;5053527;28;20036;-72
2022/06/01 09:28:43;;;;;;;1.13;0.20;;;17.00;99.90;;;;;;5053008;28;20025;-72
2022/06/01 09:31:25;;;;;;;0.20;0.00;;;17.20;99.90;;;;;;5053003;28;20468;-72
2022/06/01 09:33:51;;;;;;;0.40;0.00;;;17.40;99.90;;;;;;5052900;28;20025;-72
2022/06/01 09:36:26;;;;;;;0.00;0.00;;;17.50;99.90;;;;;;5053097;28;20025;-72
2022/06/01 09:38:58;;;;;;;0.63;0.03;;;17.60;99.90;;;;;;5051701;28;20021;-72
2022/06/01 09:41:26;;;;;;;0.00;0.00;;;17.70;99.90;;;;;;5051633;28;20029;-72
2022/06/01 09:43:57;;;;;;;1.35;0.00;;;17.90;99.90;;;;;;5052889;28;20032;-72
2022/06/01 09:46:39;;;;;;;0.00;0.00;;;17.80;99.90;;;;;;5052879;28;20100;-72
2022/06/01 09:49:08;;;;;;;0.40;0.00;;;17.50;99.90;;;;;;5051715;28;20052;-72
2022/06/01 09:51:38;;;;;;;3.38;0.00;;;17.40;99.90;;;;;;5051548;28;20025;-72
2022/06/01 09:54:25;;;;;;;0.30;0.00;;;17.60;99.90;;;;;;5051520;28;20125;-72
2022/06/01 09:56:52;;;;;;;0.10;0.00;;;17.80;99.90;;;;;;5053448;28;20479;-72
2022/06/01 10:07:41;;;;;;;0.45;0.00;;;18.10;98.00;;;;;;5056565;28;20032;-72
2022/06/01 10:10:17;;;;;;;0.00;0.00;;;18.20;99.90;;;;;;5056932;28;20028;-72
2022/06/01 10:12:55;;;;;;;0.03;0.00;;;18.30;99.90;;;;;;5056994;28;20111;-72
2022/06/01 10:15:42;;;;;;;0.30;0.00;;;18.30;99.40;;;;;;5055019;28;20025;-71
2022/06/01 10:18:21;;;;;;;0.47;0.20;;;18.30;97.00;;;;;;5056855;28;20025;-71
2022/06/01 10:20:50;;;;;;;0.20;0.10;;;18.10;96.90;;;;;;5056241;28;20033;-71
2022/06/01 10:23:49;;;;;;;1.35;0.00;;;17.80;98.30;;;;;;5056169;28;20487;-71
2022/06/01 10:26:34;;;;;;;0.10;0.00;;;17.70;99.90;;;;;;5052487;28;20399;-71
2022/06/01 10:29:08;;;;;;;0.38;0.05;;;17.90;99.90;;;;;;5056416;28;20033;-71
2022/06/01 10:31:42;;;;;;;1.45;0.30;;;18.20;99.90;;;;;;5055951;28;20035;-71
2022/06/01 10:34:31;;;;;;;0.00;0.00;;;18.40;95.10;;;;;;5056300;28;20021;-71
2022/06/01 10:37:02;;;;;;;;;;;18.50;95.70;;;;;;5056256;28;20025;-71
2022/06/01 10:39:40;;;;;;;0.45;0.00;;;18.60;91.70;;;;;;5055849;28;19909;-71
2022/06/01 10:45:20;;;;;;;0.90;0.00;;;18.70;97.30;;;;;;5055722;28;20064;-72
2022/06/01 10:48:01;;;;;;;0.00;0.00;;;18.80;94.50;;;;;;5055798;28;20040;-72
2022/06/01 10:50:32;;;;;;;0.00;0.00;;;19.00;95.40;;;;;;5056265;28;20345;-71
2022/06/01 10:53:10;;;;;;;0.95;0.20;;;19.30;96.20;;;;;;5056200;28;20476;-71
2022/06/01 10:55:41;;;;;;;1.10;0.00;;;19.50;91.70;;;;;;5054126;28;20032;-71
2022/06/01 10:58:09;;;;;;;0.10;0.00;;;19.80;97.50;;;;;;5055430;28;20055;-71
2022/06/01 11:01:09;;;;;;;0.20;0.00;;;19.90;93.80;;;;;;5053432;28;20029;-72
2022/06/01 11:03:50;;;;;;;0.30;0.00;;;19.60;92.10;;;;;;5054568;28;20087;-71
2022/06/01 11:06:43;;;;;;;1.75;0.00;;;19.60;89.20;;;;;;5054421;28;20021;-71
2022/06/01 11:09:50;;;;;;;0.20;0.00;;;19.80;94.40;;;;;;5055346;28;20025;-71
2022/06/01 11:12:45;;;;;;;1.17;0.00;;;20.00;90.40;;;;;;5055942;28;20025;-71
2022/06/01 11:15:56;;;;;;;0.75;0.00;;;20.10;92.30;;;;;;5055801;28;20013;-71
2022/06/01 11:18:49;;;;;;;2.08;0.10;;;20.00;84.70;;;;;;5054196;28;20025;-71
2022/06/01 11:21:15;;;;;;;3.20;0.25;;;20.20;92.00;;;;;;5055436;28;20470;-71
2022/06/01 11:24:13;;;;;;;1.40;0.00;;;19.90;90.00;;;;;;5053832;28;20104;-71
2022/06/01 11:27:00;;;;;;;;;;;19.90;91.00;;;;;;5055979;28;20043;-71
2022/06/01 11:29:38;;;;;;;0.00;0.00;;;20.00;92.00;;;;;;5053763;28;19962;-71
2022/06/01 11:32:11;;;;;;;0.63;0.00;;;20.20;81.80;;;;;;5055202;28;20123;-71
2022/06/01 11:34:40;;;;;;;0.65;0.00;;;20.60;86.20;;;;;;5055024;28;20095;-71
2022/06/01 11:37:09;;;;;;;;;;;20.90;79.50;;;;;;5055658;28;20033;-71
2022/06/01 11:39:46;;;;;;;0.70;0.00;;;20.80;79.60;;;;;;5053606;28;19904;-71
2022/06/01 11:42:39;;;;;;;0.80;0.00;;;20.50;88.90;;;;;;5055088;28;20557;-71
2022/06/01 11:45:09;;;;;;;1.98;0.00;;;20.10;87.90;;;;;;5054946;28;20479;-71
2022/06/01 11:47:50;;;;;;;0.60;0.00;;;19.50;90.20;;;;;;5053389;28;20036;-71
2022/06/01 11:50:37;;;;;;;0.10;0.10;;;19.30;92.90;;;;;;5053338;28;20495;-71
2022/06/01 11:53:12;;;;;;;0.10;0.10;;;19.50;93.40;;;;;;5054534;28;20032;-71
2022/06/01 11:55:38;;;;;;;0.43;0.10;;;19.20;90.70;;;;;;5054671;28;20487;-71
2022/06/01 11:58:11;;;;;;;0.90;0.05;;;19.30;90.40;;;;;;5054362;28;20031;-71
2022/06/01 12:00:45;;;;;;;3.10;0.10;;;19.50;90.80;;;;;;5053108;28;20494;-71
2022/06/01 12:03:19;;;;;;;7.55;0.47;;;19.50;79.10;;;;;;5052999;28;20032;-71
2022/06/01 12:06:12;;;;;;;0.20;0.00;;;19.60;87.60;;;;;;5054210;28;20056;-71
2022/06/01 12:08:55;;;;;;;0.70;0.00;;;19.60;92.60;;;;;;5053016;28;20491;-71
2022/06/01 12:11:38;;;;;;;0.95;0.00;;;19.50;93.50;;;;;;5054414;28;20021;-71
2022/06/01 12:14:30;;;;;;;1.15;0.00;;;19.70;92.00;;;;;;5054277;28;20357;-71
2022/06/01 12:17:17;;;;;;;0.10;0.00;;;19.90;83.20;;;;;;5052829;28;20023;-71
2022/06/01 12:19:47;;;;;;;0.30;0.10;;;20.30;90.20;;;;;;5054040;28;20021;-71
2022/06/01 12:28:48;;;;;;;0.63;0.00;;;20.60;89.20;;;;;;5025083;28;20063;-71
2022/06/01 12:31:36;;;;;;;4.15;0.52;;;20.80;88.90;;;;;;5053720;28;20107;-71
2022/06/01 12:34:08;;;;;;;;;;;20.50;81.00;;;;;;5054214;28;20017;-71
2022/06/01 12:36:39;;;;;;;0.10;0.00;;;20.10;82.60;;;;;;5053813;28;19904;-71
2022/06/01 12:39:29;;;;;;;2.60;0.20;;;19.70;85.40;;;;;;5053737;28;20017;-71
2022/06/01 12:42:19;;;;;;;1.85;0.00;;;19.50;84.90;;;;;;5052439;28;20029;-71
2022/06/01 12:44:50;;;;;;;1.75;0.00;;;19.30;90.00;;;;;;5053780;28;20499;-71
2022/06/01 12:47:31;;;;;;;0.73;0.20;;;19.20;91.00;;;;;;5053531;28;20471;-71
2022/06/01 12:50:07;;;;;;;0.35;0.03;;;18.70;87.30;;;;;;5053545;28;20028;-71
2022/06/01 12:52:36;;;;;;;1.98;0.10;;;19.00;93.20;;;;;;5053696;28;20448;-71
2022/06/01 12:55:07;;;;;;;0.40;0.00;;;19.30;92.70;;;;;;5053323;28;20439;-71
2022/06/01 12:57:48;;;;;;;0.38;0.10;;;19.20;90.90;;;;;;5053263;28;20021;-72
2022/06/01 13:00:17;;;;;;;0.20;0.00;;;19.60;89.70;;;;;;5052293;28;20077;-71
2022/06/01 13:02:43;;;;;;;2.15;0.55;;;19.70;90.70;;;;;;5051900;28;20040;-71
2022/06/01 13:05:13;;;;;;;6.13;0.47;;;19.70;82.00;;;;;;5053214;28;20024;-71
2022/06/01 13:07:41;;;;;;;0.20;0.08;;;19.70;91.60;;;;;;5053236;28;20021;-71
2022/06/01 13:10:14;;;;;;;0.88;0.10;;;19.70;91.00;;;;;;5053529;28;20098;-71
2022/06/01 13:12:39;;;;;;;1.17;0.00;;;19.80;90.20;;;;;;5053228;28;20025;-71
2022/06/01 13:15:23;;;;;;;1.42;0.08;;;19.80;89.30;;;;;;5053447;28;20036;-71
2022/06/01 13:17:53;;;;;;;0.32;0.13;;;19.80;87.10;;;;;;5053757;28;20024;-71
2022/06/01 13:20:43;;;;;;;1.73;0.10;;;19.80;88.60;;;;;;5052988;28;20033;-71
2022/06/01 13:23:28;;;;;;;1.55;0.00;;;19.90;83.90;;;;;;5053815;28;20040;-71
2022/06/01 13:25:56;;;;;;;0.68;0.10;;;20.10;90.30;;;;;;5053031;28;20072;-71
2022/06/01 13:28:23;;;;;;;0.30;0.00;;;20.50;85.30;;;;;;5053117;28;20468;-71
2022/06/01 13:30:49;;;;;;;0.10;0.00;;;20.70;82.00;;;;;;5053006;28;20544;-71
2022/06/01 13:33:25;;;;;;;0.20;0.10;;;20.60;79.90;;;;;;5053332;28;20368;-71
2022/06/01 13:36:00;;;;;;;1.25;0.30;;;20.50;81.30;;;;;;5052953;28;20374;-71
2022/06/01 13:38:45;;;;;;;1.10;0.30;;;20.20;83.50;;;;;;5052962;28;20021;-71
2022/06/01 13:41:26;;;;;;;0.20;0.00;;;20.10;89.00;;;;;;5054943;28;20036;-71
2022/06/01 13:43:52;;;;;;;3.40;0.00;;;20.10;84.30;;;;;;5057094;28;20029;-71
2022/06/01 13:46:31;;;;;;;0.35;0.00;;;20.00;74.60;;;;;;5057193;28;20112;-71